Shenandoah National Park, VA

11:28 PM EDT on July 30, 2016 (GMT -0400)
Lord Willing Dr. | | Change Station
Active Advisory: Areal Flood Warning Active Notice: Local Storm Report

Elev 499 ft 38.54 °N, 77.94 °W | Updated 7 seconds ago

Rain
Rain
70.9 °F
Feels Like 70.9 °F
N
0.0
Wind Variable Wind from NW
Gusts 0.0 mph

Today
High -- | Low -- °F
--% Chance of Precip.
Yesterday
High -- | Low -- °F
Precip. -- in
Pressure 30.00 in
Visibility 7.0 miles
Clouds Mostly Cloudy 700 ft
Dew Point 70 °F
Humidity 97%
Rainfall 0.20 in
Snow Depth Not available.
6:12 AM 8:23 PM
Waning Crescent, 9% visible
METAR KCJR 310315Z AUTO 00000KT 7SM BKN007 22/22 A3000 RMK AO2 T02200220
Pressure 30.00 in
Visibility 7.0 miles
Clouds Mostly Cloudy 700 ft
Dew Point 70 °F
Humidity 97%
Rainfall 0.20 in
Snow Depth Not available.
6:12 AM 8:23 PM
Waning Crescent, 9% visible
METAR KCJR 310315Z AUTO 00000KT 7SM BKN007 22/22 A3000 RMK AO2 T02200220

10-Day Weather Forecast

Almanac

Astronomy

Jul. 30, 2016 Rise Set
Actual Time
Civil Twilight
Nautical Twilight
Astronomical Twilight
Moon
Length of Visible Light
Length of Day
Tomorrow will be .
, % of the Moon is Illuminated

Today's Extremes

State Highs State Lows

Community

WunderPhotos

Upload Photos

1,928,734 photos uploaded!

WunderBlog® & News

Nearby

Air Quality

  Air Quality AQ Index Pollutant
Not available.

Snow Depth

Station Depth Elevation

Earthquake Activity

City Distance Mag. Time & Date
Minimum magnitude displayed is 2.5.

Coastal Water Temperatures

Place Temperature

Stations

Nearby Weather Stations

Station Location Temp. Windchill Dew Point Humidity Wind Precip. Elev Updated Type
                   

Watches & Warnings

Areal Flood Warning
Issued: 9:59 PM EDT Jul. 30, 2016 – National Weather Service

The National Weather Service in Sterling Virginia has issued a

* Flood Warning for...
Rappahannock County in northwestern Virginia...
northwestern Culpeper County in northern Virginia...

* until 400 am EDT Sunday

* at 958 PM EDT... local law enforcement officials reported flooding
ongoing in several locations from earlier thunderstorms.

* Some locations that will experience flooding include...
Sperryville... Washington... Amissville... Viewtown... Rock Mills...
Slate Mills... Boston... Jeffersonton... Cardova... hackleys
Crossroads... Rixeyville... Castleton... Woodville... Five Forks and
Alanthus.

Lat... Lon 3863 7834 3865 7832 3869 7832 3871 7833
      3876 7803 3875 7802 3872 7801 3869 7796
      3870 7793 3868 7789 3867 7790 3866 7789
      3855 7786 3850 7819


Rcm